createdAt,value
2022-08-24T00:01:52.479Z,96.50
2022-08-24T00:04:20.092Z,96.70
2022-08-24T00:06:50.397Z,96.42
2022-08-24T00:09:18.216Z,97.47
2022-08-24T00:11:46.025Z,97.06
2022-08-24T00:14:13.588Z,97.18
2022-08-24T00:16:43.573Z,97.35
2022-08-24T00:19:11.486Z,97.26
2022-08-24T00:21:39.237Z,97.30
2022-08-24T00:24:07.570Z,97.85
2022-08-24T00:26:38.719Z,98.03
2022-08-24T00:29:08.694Z,98.20
2022-08-24T00:31:36.517Z,98.33
2022-08-24T00:34:04.294Z,98.43
2022-08-24T00:36:32.062Z,98.40
2022-08-24T00:39:00.730Z,98.43
2022-08-24T00:41:29.990Z,98.32
2022-08-24T00:44:01.264Z,98.57
2022-08-24T00:46:41.975Z,98.98
2022-08-24T00:49:20.000Z,99.12
2022-08-24T00:51:55.668Z,99.26
2022-08-24T00:54:26.868Z,99.21
2022-08-24T00:56:59.897Z,99.62
2022-08-24T00:59:42.942Z,99.68
2022-08-24T01:02:20.043Z,99.82
2022-08-24T01:04:53.640Z,99.73
2022-08-24T01:07:23.795Z,100.00
2022-08-24T01:09:54.446Z,100.00
2022-08-24T01:12:24.646Z,100.00
2022-08-24T01:14:55.759Z,100.00
2022-08-24T01:17:41.081Z,100.00
2022-08-24T01:20:10.733Z,100.00
2022-08-24T01:22:54.105Z,100.00
2022-08-24T01:25:25.381Z,100.00
2022-08-24T01:27:55.880Z,100.00
2022-08-24T01:30:30.650Z,100.00
2022-08-24T01:33:07.571Z,100.00
2022-08-24T01:35:37.016Z,100.00
2022-08-24T01:38:10.227Z,100.00
2022-08-24T01:40:43.645Z,100.00
2022-08-24T01:43:15.049Z,100.00
2022-08-24T01:45:43.847Z,100.00
2022-08-24T01:48:12.009Z,100.00
2022-08-24T01:50:39.567Z,100.00
2022-08-24T01:53:08.258Z,100.00
2022-08-24T01:55:36.117Z,100.00
2022-08-24T01:58:05.530Z,100.00
2022-08-24T02:00:37.580Z,100.00
2022-08-24T02:03:08.245Z,100.00
2022-08-24T02:05:36.489Z,100.00
2022-08-24T02:08:04.434Z,100.00
2022-08-24T02:10:35.180Z,100.00
2022-08-24T02:13:04.254Z,100.00
2022-08-24T02:15:35.247Z,100.00
2022-08-24T02:18:02.835Z,100.00
2022-08-24T02:20:30.420Z,100.00
2022-08-24T02:22:58.667Z,100.00
2022-08-24T02:25:30.548Z,100.00
2022-08-24T02:27:59.719Z,100.00
2022-08-24T02:30:30.953Z,100.00
2022-08-24T02:32:59.755Z,100.00
2022-08-24T02:35:30.069Z,100.00
2022-08-24T02:37:57.900Z,100.00
2022-08-24T02:40:26.228Z,100.00
2022-08-24T02:42:55.231Z,100.00
2022-08-24T02:45:26.583Z,100.00
2022-08-24T02:47:54.586Z,100.00
2022-08-24T02:50:22.186Z,100.00
2022-08-24T02:52:52.408Z,100.00
2022-08-24T02:55:20.711Z,100.00
2022-08-24T02:57:50.603Z,100.00
2022-08-24T03:00:22.484Z,100.00
2022-08-24T03:02:50.130Z,100.00
2022-08-24T03:05:17.781Z,100.00
2022-08-24T03:07:45.422Z,100.00
2022-08-24T03:10:15.658Z,100.00
2022-08-24T03:12:43.238Z,100.00
2022-08-24T03:15:12.496Z,100.00
2022-08-24T03:17:44.066Z,100.00
2022-08-24T03:20:16.241Z,100.00
2022-08-24T03:22:44.262Z,100.00
2022-08-24T03:25:12.986Z,100.00
2022-08-24T03:27:40.569Z,100.00
2022-08-24T03:30:14.477Z,100.00
2022-08-24T03:32:43.286Z,100.00
2022-08-24T03:35:12.930Z,100.00
2022-08-24T03:37:40.509Z,100.00
2022-08-24T03:40:22.134Z,100.00
2022-08-24T03:42:57.868Z,100.00
2022-08-24T03:45:28.448Z,100.00
2022-08-24T03:47:56.467Z,100.00
2022-08-24T03:50:25.056Z,100.00
2022-08-24T03:52:55.225Z,100.00
2022-08-24T03:55:22.862Z,100.00
2022-08-24T03:57:50.716Z,100.00
2022-08-24T04:00:18.562Z,100.00
2022-08-24T04:02:46.297Z,100.00
2022-08-24T04:05:14.265Z,100.00
2022-08-24T04:07:41.829Z,100.00
2022-08-24T04:10:09.792Z,100.00
2022-08-24T04:12:37.331Z,100.00
2022-08-24T04:15:05.518Z,100.00
2022-08-24T04:17:33.034Z,100.00
2022-08-24T04:20:02.942Z,100.00
2022-08-24T04:22:35.086Z,100.00
2022-08-24T04:25:02.769Z,100.00
2022-08-24T04:27:39.227Z,100.00
2022-08-24T04:30:07.384Z,100.00
2022-08-24T04:32:35.253Z,100.00
2022-08-24T04:35:03.494Z,100.00
2022-08-24T04:37:31.832Z,100.00
2022-08-24T04:39:59.424Z,100.00
2022-08-24T04:42:27.062Z,100.00
2022-08-24T04:44:55.065Z,100.00
2022-08-24T04:47:24.903Z,100.00
2022-08-24T04:49:52.674Z,100.00
2022-08-24T04:52:20.549Z,100.00
2022-08-24T04:55:12.680Z,100.00
2022-08-24T04:57:40.343Z,100.00
2022-08-24T05:00:12.399Z,100.00
2022-08-24T05:02:45.025Z,99.55
2022-08-24T05:05:15.425Z,98.77
2022-08-24T05:07:44.994Z,97.48
2022-08-24T05:10:12.559Z,96.83
2022-08-24T05:12:44.219Z,95.26
2022-08-24T05:15:14.034Z,94.14
2022-08-24T05:17:43.625Z,93.18
2022-08-24T05:20:23.071Z,92.42
2022-08-24T05:22:55.989Z,91.05
2022-08-24T05:25:24.548Z,90.87
2022-08-24T05:27:52.488Z,89.97
2022-08-24T05:30:22.866Z,89.92
2022-08-24T05:32:52.377Z,88.75
2022-08-24T05:35:20.046Z,87.27
2022-08-24T05:37:49.961Z,86.46
2022-08-24T05:40:19.322Z,84.75
2022-08-24T05:42:48.285Z,84.17
2022-08-24T05:45:16.558Z,83.72
2022-08-24T05:47:44.074Z,82.71
2022-08-24T05:50:11.592Z,81.12
2022-08-24T05:52:39.148Z,79.29
2022-08-24T05:55:07.741Z,79.04
2022-08-24T05:57:37.017Z,76.85
2022-08-24T06:00:12.788Z,74.68
2022-08-24T06:02:40.383Z,70.61
2022-08-24T06:05:10.961Z,68.60
2022-08-24T06:07:38.570Z,67.33
2022-08-24T06:10:34.961Z,65.18
2022-08-24T06:12:56.594Z,64.32
2022-08-24T06:15:26.531Z,62.11
2022-08-24T06:17:56.746Z,59.98
2022-08-24T06:20:24.506Z,60.61
2022-08-24T06:22:52.042Z,59.57
2022-08-24T06:25:36.938Z,58.64
2022-08-24T06:28:07.291Z,58.92
2022-08-24T06:30:37.603Z,57.21
2022-08-24T06:33:08.604Z,55.90
2022-08-24T06:35:42.416Z,56.25
2022-08-24T06:38:12.314Z,55.58
2022-08-24T06:40:40.641Z,55.51
2022-08-24T06:43:08.175Z,55.12
2022-08-24T06:45:38.190Z,55.23
2022-08-24T06:48:11.386Z,56.22
2022-08-24T06:50:40.604Z,56.01
2022-08-24T06:53:08.136Z,55.08
2022-08-24T06:55:38.145Z,56.83
2022-08-24T06:58:05.643Z,58.91
2022-08-24T07:00:33.193Z,61.41
2022-08-24T07:03:02.786Z,61.53
2022-08-24T07:05:37.305Z,62.28
2022-08-24T07:08:09.153Z,62.57
2022-08-24T07:10:36.720Z,62.72
2022-08-24T07:13:04.563Z,62.70
2022-08-24T07:15:34.325Z,62.52
2022-08-24T07:18:04.746Z,62.21
2022-08-24T07:20:34.975Z,62.71
2022-08-24T07:23:02.607Z,62.68
2022-08-24T07:25:32.306Z,62.99
2022-08-24T07:28:09.396Z,63.56
2022-08-24T07:30:37.762Z,63.91
2022-08-24T07:33:05.553Z,64.20
2022-08-24T07:35:34.654Z,64.34
2022-08-24T07:41:20.238Z,65.28
2022-08-24T07:43:53.606Z,64.60
2022-08-24T07:46:23.963Z,63.31
2022-08-24T07:49:00.182Z,61.75
2022-08-24T07:51:45.023Z,60.47
2022-08-24T07:54:17.376Z,59.76
2022-08-24T07:56:50.087Z,59.66
2022-08-24T07:59:18.863Z,57.84
2022-08-24T08:01:46.749Z,56.54
2022-08-24T08:04:16.261Z,56.21
2022-08-24T08:06:43.925Z,55.48
2022-08-24T08:09:11.529Z,52.55
2022-08-24T08:11:39.118Z,52.64
2022-08-24T08:14:09.044Z,52.44
2022-08-24T08:16:39.275Z,53.58
2022-08-24T08:19:10.408Z,51.71
2022-08-24T08:22:12.471Z,49.55
2022-08-24T08:24:43.554Z,51.96
2022-08-24T08:27:12.957Z,51.81
2022-08-24T08:29:42.009Z,53.43
2022-08-24T08:32:12.109Z,54.57
2022-08-24T08:34:39.658Z,55.65
2022-08-24T08:37:07.643Z,56.23
2022-08-24T08:39:37.461Z,56.15
2022-08-24T08:42:24.963Z,56.21
2022-08-24T08:45:06.537Z,55.40
2022-08-24T08:47:34.478Z,52.88
2022-08-24T08:50:08.107Z,48.75
2022-08-24T08:53:13.783Z,48.33
2022-08-24T08:55:47.027Z,47.18
2022-08-24T08:58:51.115Z,48.36
2022-08-24T09:01:48.892Z,45.16
2022-08-24T09:04:45.515Z,43.32
2022-08-24T09:07:27.743Z,38.72
2022-08-24T09:10:10.236Z,39.30
2022-08-24T09:12:59.050Z,39.32
2022-08-24T09:15:51.167Z,40.01
2022-08-24T09:18:50.319Z,39.32
2022-08-24T09:21:56.834Z,37.36
2022-08-24T09:24:53.923Z,38.74
2022-08-24T09:27:32.333Z,41.00
2022-08-24T09:30:18.722Z,41.71
2022-08-24T09:33:02.126Z,41.28
2022-08-24T09:35:52.079Z,40.79
2022-08-24T09:38:38.250Z,40.85
2022-08-24T09:41:28.837Z,45.04
2022-08-24T09:44:24.443Z,45.36
2022-08-24T09:47:10.538Z,46.36
2022-08-24T09:50:02.538Z,47.23
2022-08-24T09:52:48.018Z,43.17
2022-08-24T09:55:34.189Z,42.53
2022-08-24T09:58:31.038Z,43.89
2022-08-24T10:01:22.682Z,44.85
2022-08-24T10:04:23.958Z,43.53
2022-08-24T10:07:18.092Z,46.11
2022-08-24T10:09:51.497Z,44.82
2022-08-24T10:13:02.137Z,46.08
2022-08-24T10:15:32.307Z,46.98
2022-08-24T10:18:35.144Z,48.65
2022-08-24T10:21:37.827Z,49.52
2022-08-24T10:24:16.001Z,50.17
2022-08-24T10:27:05.622Z,50.57
2022-08-24T10:29:45.170Z,50.96
2022-08-24T10:32:39.105Z,50.92
2022-08-24T10:35:08.054Z,51.53
2022-08-24T10:38:13.392Z,50.66
2022-08-24T10:41:18.971Z,51.61
2022-08-24T10:44:02.667Z,51.98
2022-08-24T10:46:38.356Z,51.51
2022-08-24T10:49:36.632Z,51.20
2022-08-24T10:52:36.580Z,52.94
2022-08-24T10:55:21.226Z,53.10
2022-08-24T10:58:11.697Z,53.95
2022-08-24T11:00:39.895Z,54.74
2022-08-24T11:03:18.577Z,55.36
2022-08-24T11:06:22.528Z,55.39
2022-08-24T11:09:19.963Z,54.73
2022-08-24T11:11:50.538Z,55.86
2022-08-24T11:14:29.302Z,55.91
2022-08-24T11:17:17.120Z,55.17
2022-08-24T11:19:44.824Z,55.57
2022-08-24T11:22:43.058Z,55.24
2022-08-24T11:25:10.575Z,55.10
2022-08-24T11:27:42.149Z,55.86
2022-08-24T11:30:18.895Z,55.30
2022-08-24T11:32:54.330Z,55.11
2022-08-24T11:35:39.301Z,54.94
2022-08-24T11:38:06.785Z,58.94
2022-08-24T11:40:40.623Z,59.54
2022-08-24T11:43:24.512Z,61.54
2022-08-24T11:46:28.403Z,63.70
2022-08-24T11:49:14.530Z,66.44
2022-08-24T11:52:03.986Z,67.62
2022-08-24T11:54:44.974Z,69.57
2022-08-24T11:57:26.844Z,68.92
2022-08-24T12:00:06.488Z,70.90
2022-08-24T12:02:36.560Z,70.35
2022-08-24T12:05:25.522Z,71.23
2022-08-24T12:08:17.329Z,70.97
2022-08-24T12:10:50.594Z,71.22
2022-08-24T12:13:45.365Z,70.27
2022-08-24T12:16:40.092Z,69.93
2022-08-24T12:19:23.894Z,70.28
2022-08-24T12:21:57.821Z,69.15
2022-08-24T12:24:46.252Z,68.22
2022-08-24T12:27:43.380Z,66.63
2022-08-24T12:30:18.609Z,66.55
2022-08-24T12:32:58.896Z,63.99
2022-08-24T12:35:35.804Z,62.12
2022-08-24T12:38:27.220Z,62.50
2022-08-24T12:40:58.548Z,63.74
2022-08-24T12:43:55.220Z,64.80
2022-08-24T12:46:25.618Z,65.13
2022-08-24T12:49:03.161Z,66.78
2022-08-24T12:52:20.886Z,66.40
2022-08-24T12:54:54.463Z,67.10
2022-08-24T12:57:54.187Z,68.00
2022-08-24T13:00:52.641Z,67.96
2022-08-24T13:03:34.321Z,67.99
2022-08-24T13:06:25.784Z,68.80
2022-08-24T13:09:07.851Z,68.88
2022-08-24T13:11:37.948Z,69.44
2022-08-24T13:14:22.381Z,69.74
2022-08-24T13:16:58.746Z,73.35
2022-08-24T13:19:31.784Z,76.23
2022-08-24T13:22:02.368Z,77.30
2022-08-24T13:24:32.071Z,79.14
2022-08-24T13:27:21.871Z,79.35
2022-08-24T13:30:12.199Z,81.29
2022-08-24T13:32:44.505Z,80.76
2022-08-24T13:35:41.956Z,82.12
2022-08-24T13:38:42.385Z,80.79
2022-08-24T13:41:10.321Z,83.19
2022-08-24T13:43:55.980Z,81.53
2022-08-24T13:46:49.865Z,83.75
2022-08-24T13:50:02.193Z,83.74
2022-08-24T13:52:42.555Z,85.69
2022-08-24T13:55:22.801Z,83.27
2022-08-24T13:58:25.012Z,86.75
2022-08-24T14:01:01.875Z,87.89
2022-08-24T14:03:42.795Z,87.68
2022-08-24T14:06:32.194Z,89.76
2022-08-24T14:09:15.157Z,87.18
2022-08-24T14:11:52.451Z,87.78
2022-08-24T14:14:41.743Z,85.35
2022-08-24T14:17:38.694Z,86.26
2022-08-24T14:20:24.792Z,85.29
2022-08-24T14:22:58.327Z,85.77
2022-08-24T14:25:30.518Z,86.22
2022-08-24T14:28:45.272Z,86.08
2022-08-24T14:31:30.961Z,87.93
2022-08-24T14:34:32.552Z,87.23
2022-08-24T14:37:20.371Z,86.54
2022-08-24T14:40:22.546Z,86.75
2022-08-24T14:43:35.874Z,87.35
2022-08-24T14:46:29.126Z,89.31
2022-08-24T14:49:22.455Z,87.52
2022-08-24T14:52:07.870Z,89.06
2022-08-24T14:54:46.802Z,89.32
2022-08-24T14:57:47.988Z,87.66
2022-08-24T15:00:25.696Z,86.92
2022-08-24T15:02:56.160Z,87.09
2022-08-24T15:05:41.023Z,86.34
2022-08-24T15:08:33.190Z,86.21
2022-08-24T15:11:09.842Z,84.23
2022-08-24T15:14:00.230Z,84.95
2022-08-24T15:16:40.143Z,82.22
2022-08-24T15:19:46.559Z,84.18
2022-08-24T15:22:38.990Z,83.82
2022-08-24T15:25:16.686Z,82.75
2022-08-24T15:27:54.598Z,83.19
2022-08-24T15:30:27.192Z,83.70
2022-08-24T15:33:07.460Z,82.05
2022-08-24T15:35:40.047Z,82.26
2022-08-24T15:38:37.899Z,82.22
2022-08-24T15:41:07.394Z,80.57
2022-08-24T15:43:44.979Z,80.00
2022-08-24T15:46:14.019Z,78.98
2022-08-24T15:48:43.542Z,78.14
2022-08-24T15:51:53.290Z,78.32
2022-08-24T15:54:24.900Z,77.20
2022-08-24T15:56:58.994Z,77.62
2022-08-24T15:59:43.190Z,77.60
2022-08-24T16:02:33.598Z,77.52
2022-08-24T16:05:24.283Z,78.22
2022-08-24T16:08:03.978Z,77.34
2022-08-24T16:10:48.929Z,77.89
2022-08-24T16:13:19.372Z,78.84
2022-08-24T16:16:01.722Z,79.27
2022-08-24T16:18:57.382Z,78.97
2022-08-24T16:21:55.224Z,78.77
2022-08-24T16:24:36.859Z,78.73
2022-08-24T16:27:21.040Z,78.72
2022-08-24T16:29:55.883Z,79.08
2022-08-24T16:32:33.649Z,78.82
2022-08-24T16:35:13.221Z,78.59
2022-08-24T16:38:50.767Z,79.19
2022-08-24T16:41:23.550Z,79.07
2022-08-24T16:43:53.308Z,79.39
2022-08-24T16:46:23.759Z,79.63
2022-08-24T16:48:56.316Z,79.93
2022-08-24T16:51:26.098Z,80.23
2022-08-24T16:53:54.547Z,80.50
2022-08-24T16:56:23.002Z,81.07
2022-08-24T16:58:51.878Z,81.43
2022-08-24T17:01:19.894Z,82.16
2022-08-24T17:03:47.693Z,81.65
2022-08-24T17:06:18.937Z,82.70
2022-08-24T17:08:47.532Z,83.65
2022-08-24T17:11:19.465Z,82.82
2022-08-24T17:13:50.340Z,82.23
2022-08-24T17:16:19.295Z,81.55
2022-08-24T17:18:47.437Z,81.84
2022-08-24T17:21:20.336Z,82.32
2022-08-24T17:23:48.485Z,82.25
2022-08-24T17:26:21.832Z,81.70
2022-08-24T17:28:51.822Z,81.91
2022-08-24T17:31:19.531Z,81.66
2022-08-24T17:33:47.211Z,81.67
2022-08-24T17:36:16.070Z,81.81
2022-08-24T17:38:55.101Z,82.24
2022-08-24T17:41:44.675Z,82.67
2022-08-24T17:44:24.993Z,83.53
2022-08-24T17:46:58.894Z,85.09
2022-08-24T17:49:31.756Z,85.68
2022-08-24T17:52:00.137Z,85.66
2022-08-24T17:54:30.495Z,84.96
2022-08-24T17:57:01.032Z,84.66
2022-08-24T17:59:44.133Z,84.62
2022-08-24T18:02:13.652Z,85.07
2022-08-24T18:04:41.648Z,85.02
2022-08-24T18:07:35.822Z,85.49
2022-08-24T18:10:12.749Z,85.01
2022-08-24T18:12:42.460Z,85.10
2022-08-24T18:15:13.423Z,85.46
2022-08-24T18:17:44.532Z,86.36
2022-08-24T18:20:14.421Z,87.46
2022-08-24T18:22:45.061Z,87.07
2022-08-24T18:25:13.743Z,88.04
2022-08-24T18:27:44.606Z,88.29
2022-08-24T18:30:19.403Z,87.92
2022-08-24T18:32:49.998Z,89.18
2022-08-24T18:35:17.846Z,89.47
2022-08-24T18:37:47.315Z,89.57
2022-08-24T18:40:21.635Z,89.89
2022-08-24T18:42:51.410Z,89.77
2022-08-24T18:45:19.509Z,89.78
2022-08-24T18:47:53.156Z,90.93
2022-08-24T18:50:21.453Z,90.50
2022-08-24T18:52:49.439Z,90.29
2022-08-24T18:55:19.272Z,90.13
2022-08-24T18:57:46.895Z,89.96
2022-08-24T19:00:17.366Z,90.26
2022-08-24T19:02:45.502Z,90.27
2022-08-24T19:05:15.727Z,90.15
2022-08-24T19:07:45.889Z,90.32
2022-08-24T19:10:16.138Z,90.25
2022-08-24T19:12:49.364Z,90.29
2022-08-24T19:15:34.585Z,90.42
2022-08-24T19:18:10.058Z,90.59
2022-08-24T19:20:43.421Z,90.46
2022-08-24T19:23:18.104Z,90.99
2022-08-24T19:25:46.927Z,90.93
2022-08-24T19:28:17.271Z,91.30
2022-08-24T19:30:49.225Z,91.56
2022-08-24T19:33:23.251Z,91.52
2022-08-24T19:35:52.145Z,91.32
2022-08-24T19:38:25.848Z,91.32
2022-08-24T19:40:57.074Z,91.32
2022-08-24T19:43:28.931Z,91.33
2022-08-24T19:46:08.555Z,91.24
2022-08-24T19:48:40.238Z,91.40
2022-08-24T19:51:15.872Z,91.67
2022-08-24T19:53:48.082Z,92.39
2022-08-24T19:56:18.402Z,92.13
2022-08-24T19:59:04.104Z,92.18
2022-08-24T20:01:35.467Z,92.25
2022-08-24T20:04:06.296Z,92.43
2022-08-24T20:06:35.656Z,92.37
2022-08-24T20:09:04.091Z,91.74
2022-08-24T20:11:35.399Z,91.88
2022-08-24T20:14:05.947Z,92.14
2022-08-24T20:16:43.081Z,92.05
2022-08-24T20:19:12.433Z,92.35
2022-08-24T20:21:40.320Z,92.44
2022-08-24T20:24:11.267Z,91.79
2022-08-24T20:26:43.709Z,91.99
2022-08-24T20:29:15.134Z,92.27
2022-08-24T20:31:50.484Z,92.18
2022-08-24T20:34:19.986Z,92.51
2022-08-24T20:36:50.638Z,93.07
2022-08-24T20:39:28.595Z,92.75
2022-08-24T20:41:57.164Z,92.78
2022-08-24T20:44:27.533Z,92.73
2022-08-24T20:46:58.547Z,92.54
2022-08-24T20:49:27.671Z,92.53
2022-08-24T20:51:55.602Z,92.25
2022-08-24T20:54:23.121Z,92.91
2022-08-24T20:56:50.816Z,93.08
2022-08-24T20:59:18.830Z,92.93
2022-08-24T21:01:48.281Z,93.49
2022-08-24T21:04:15.984Z,93.32
2022-08-24T21:06:46.135Z,93.57
2022-08-24T21:09:18.590Z,93.75
2022-08-24T21:11:46.334Z,93.76
2022-08-24T21:14:13.935Z,93.63
2022-08-24T21:16:44.363Z,93.48
2022-08-24T21:19:16.162Z,93.72
2022-08-24T21:21:43.870Z,93.62
2022-08-24T21:24:12.015Z,93.35
2022-08-24T21:26:42.649Z,93.62
2022-08-24T21:29:11.039Z,93.62
2022-08-24T21:31:39.458Z,93.70
2022-08-24T21:34:27.996Z,93.79
2022-08-24T21:36:55.923Z,93.70
2022-08-24T21:39:25.747Z,93.55
2022-08-24T21:41:54.525Z,93.77
2022-08-24T21:44:22.041Z,94.02
2022-08-24T21:46:51.506Z,94.20
2022-08-24T21:49:20.085Z,94.17
2022-08-24T21:51:48.090Z,93.99
2022-08-24T21:54:15.749Z,94.00
2022-08-24T21:56:43.261Z,94.38
2022-08-24T21:59:10.842Z,94.14
2022-08-24T22:01:38.775Z,93.52
2022-08-24T22:04:06.786Z,93.09
2022-08-24T22:06:34.561Z,92.99
2022-08-24T22:09:02.838Z,92.88
2022-08-24T22:11:32.977Z,93.60
2022-08-24T22:14:00.721Z,94.30
2022-08-24T22:16:28.360Z,94.93
2022-08-24T22:18:55.998Z,95.25
2022-08-24T22:21:29.362Z,95.38
2022-08-24T22:23:59.432Z,96.11
2022-08-24T22:26:29.078Z,96.48
2022-08-24T22:28:56.886Z,96.85
2022-08-24T22:31:31.616Z,96.92
2022-08-24T22:34:04.123Z,96.89
2022-08-24T22:36:34.173Z,97.17
2022-08-24T22:39:01.981Z,97.50
2022-08-24T22:41:30.473Z,97.20
2022-08-24T22:44:17.703Z,97.64
2022-08-24T22:46:48.625Z,97.66
2022-08-24T22:49:19.594Z,97.71
2022-08-24T22:51:48.108Z,97.77
2022-08-24T22:54:16.902Z,97.90
2022-08-24T22:56:48.429Z,97.90
2022-08-24T22:59:19.777Z,98.03
2022-08-24T23:01:50.142Z,98.43
2022-08-24T23:04:24.534Z,98.66
2022-08-24T23:06:52.662Z,98.66
2022-08-24T23:09:20.392Z,98.71
2022-08-24T23:11:48.421Z,99.12
2022-08-24T23:14:16.477Z,99.06
2022-08-24T23:16:48.705Z,99.33
2022-08-24T23:19:40.056Z,99.48
2022-08-24T23:22:12.794Z,99.54
2022-08-24T23:24:42.625Z,99.61
2022-08-24T23:27:11.959Z,99.83
2022-08-24T23:29:40.473Z,100.00
2022-08-24T23:32:08.523Z,100.00
2022-08-24T23:34:36.495Z,100.00
2022-08-24T23:37:04.221Z,100.00
2022-08-24T23:39:32.240Z,100.00
2022-08-24T23:41:59.927Z,100.00
2022-08-24T23:44:29.765Z,100.00
2022-08-24T23:46:58.870Z,100.00
2022-08-24T23:49:30.305Z,100.00
2022-08-24T23:51:59.117Z,100.00
2022-08-24T23:54:27.697Z,100.00
2022-08-24T23:56:58.665Z,100.00
2022-08-24T23:59:29.303Z,100.00
